Time;durP1;ratioP1;P1;durP2;ratioP2;P2;SDS_P1;SDS_P2;PMS_P1;PMS_P2;Temp;Humidity;BMP_temperature;BMP_pressure;BME280_temperature;BME280_humidity;BME280_pressure;Samples;Min_cycle;Max_cycle;Signal;HPM_P1;HPM_P2
2023/08/12 00:01:51;;;;;;;0.40;0.40;;;12.90;99.90;;;;;;5073289;28;20193;-68
2023/08/12 00:04:17;;;;;;;0.40;0.40;;;12.90;99.90;;;;;;5073497;28;20205;-67
2023/08/12 00:06:43;;;;;;;1.00;1.00;;;12.90;99.90;;;;;;5073329;28;20220;-67
2023/08/12 00:09:11;;;;;;;0.73;0.73;;;13.00;99.90;;;;;;5073432;28;20197;-68
2023/08/12 00:11:39;;;;;;;3.30;1.13;;;12.90;99.90;;;;;;5072829;28;20224;-68
2023/08/12 00:14:05;;;;;;;0.40;0.40;;;12.90;99.90;;;;;;5060894;28;20302;-68
2023/08/12 00:16:31;;;;;;;0.57;0.57;;;13.00;99.90;;;;;;5053039;28;20247;-69
2023/08/12 00:18:56;;;;;;;0.40;0.40;;;13.00;99.90;;;;;;5053619;28;20197;-69
2023/08/12 00:21:22;;;;;;;0.50;0.50;;;13.00;99.90;;;;;;5064522;28;20275;-68
2023/08/12 00:23:49;;;;;;;0.40;0.40;;;13.00;99.90;;;;;;5073241;28;20200;-68
2023/08/12 00:26:15;;;;;;;0.40;0.40;;;13.00;99.90;;;;;;5073286;28;20188;-67
2023/08/12 00:28:41;;;;;;;0.55;0.55;;;13.00;99.90;;;;;;5072165;28;20219;-67
2023/08/12 00:31:07;;;;;;;0.50;0.50;;;12.90;99.90;;;;;;5073074;28;20713;-69
2023/08/12 00:33:33;;;;;;;0.40;0.40;;;13.00;99.90;;;;;;5073050;28;20189;-68
2023/08/12 00:35:59;;;;;;;0.40;0.40;;;13.00;99.90;;;;;;5072922;28;20769;-69
2023/08/12 00:38:25;;;;;;;0.40;0.40;;;13.00;99.90;;;;;;5072434;28;20274;-68
2023/08/12 00:40:50;;;;;;;0.45;0.45;;;13.00;99.90;;;;;;5073339;28;20790;-68
2023/08/12 00:43:16;;;;;;;0.40;0.40;;;13.00;99.90;;;;;;5072711;28;20189;-68
2023/08/12 00:45:42;;;;;;;1.52;0.90;;;13.00;99.90;;;;;;5072756;28;20250;-68
2023/08/12 00:48:09;;;;;;;0.73;0.52;;;13.00;99.90;;;;;;5072640;28;20678;-68
2023/08/12 00:50:37;;;;;;;0.50;0.50;;;13.10;99.90;;;;;;5072285;28;20207;-68
2023/08/12 00:53:05;;;;;;;0.60;0.60;;;13.10;99.90;;;;;;5072395;28;20196;-68
2023/08/12 00:55:32;;;;;;;0.40;0.40;;;13.10;99.90;;;;;;5072138;28;20197;-68
2023/08/12 00:57:58;;;;;;;0.50;0.50;;;13.10;99.90;;;;;;5073101;28;20623;-68
2023/08/12 01:00:24;;;;;;;0.40;0.40;;;13.10;99.90;;;;;;5072146;28;20192;-72
2023/08/12 01:02:52;;;;;;;0.50;0.50;;;13.10;99.90;;;;;;5096158;22;20232;-68
2023/08/12 01:05:20;;;;;;;0.40;0.40;;;13.10;99.90;;;;;;5091842;28;20666;-68
2023/08/12 01:07:46;;;;;;;0.45;0.45;;;13.10;99.90;;;;;;5091693;28;20204;-68
2023/08/12 01:10:15;;;;;;;0.50;0.50;;;13.10;99.90;;;;;;5091647;28;20211;-68
2023/08/12 01:12:56;;;;;;;0.50;0.50;;;13.10;99.90;;;;;;5092219;28;20278;-68
2023/08/12 01:15:23;;;;;;;0.45;0.45;;;13.10;99.90;;;;;;5111901;28;20653;-68
2023/08/12 01:17:52;;;;;;;0.50;0.50;;;13.10;99.90;;;;;;5112229;28;20199;-68
2023/08/12 01:20:24;;;;;;;0.65;0.65;;;13.20;99.90;;;;;;5111405;28;20226;-68
2023/08/12 01:22:57;;;;;;;0.40;0.40;;;13.20;99.90;;;;;;5111623;28;20284;-68
2023/08/12 01:25:24;;;;;;;0.43;0.43;;;13.20;99.90;;;;;;5111535;28;20274;-68
2023/08/12 01:27:50;;;;;;;0.50;0.50;;;13.20;99.90;;;;;;5111590;28;20200;-68
2023/08/12 01:30:18;;;;;;;0.40;0.40;;;13.20;99.90;;;;;;5111852;28;20199;-68
2023/08/12 01:32:57;;;;;;;0.40;0.40;;;13.20;99.90;;;;;;5111883;28;20194;-68
2023/08/12 01:35:35;;;;;;;0.52;0.52;;;13.20;99.90;;;;;;5111521;28;20653;-68
2023/08/12 01:38:04;;;;;;;0.50;0.50;;;13.20;99.90;;;;;;5111357;28;20552;-68
2023/08/12 01:40:31;;;;;;;0.40;0.40;;;13.20;99.90;;;;;;5114600;28;20183;-66
2023/08/12 01:42:56;;;;;;;0.40;0.40;;;13.20;99.90;;;;;;5115230;28;20297;-66
2023/08/12 01:45:23;;;;;;;0.45;0.45;;;13.20;99.90;;;;;;5115420;28;20282;-68
2023/08/12 01:47:50;;;;;;;0.30;0.30;;;13.30;99.90;;;;;;5114749;28;20214;-68
2023/08/12 01:50:16;;;;;;;1.48;0.93;;;13.30;99.90;;;;;;5096606;28;20203;-68
2023/08/12 01:52:42;;;;;;;0.40;0.40;;;13.30;99.90;;;;;;5115431;28;20290;-68
2023/08/12 01:55:08;;;;;;;0.50;0.50;;;13.40;99.90;;;;;;5115256;28;20504;-68
2023/08/12 01:57:34;;;;;;;0.40;0.40;;;13.40;99.90;;;;;;5097103;28;20207;-68
2023/08/12 02:00:01;;;;;;;0.70;0.70;;;13.40;99.90;;;;;;5115490;28;20653;-68
2023/08/12 02:02:27;;;;;;;0.40;0.40;;;13.40;99.90;;;;;;5093102;28;20244;-68
2023/08/12 02:04:53;;;;;;;0.50;0.50;;;13.50;99.90;;;;;;5095104;28;20289;-68
2023/08/12 02:07:19;;;;;;;0.60;0.60;;;13.50;99.90;;;;;;5094625;28;20208;-69
2023/08/12 02:09:44;;;;;;;0.50;0.50;;;13.50;99.90;;;;;;5094890;28;20189;-68
2023/08/12 02:12:10;;;;;;;0.52;0.52;;;13.60;99.90;;;;;;5095124;28;20206;-69
2023/08/12 02:14:36;;;;;;;0.40;0.40;;;13.60;99.90;;;;;;5078091;28;20200;-69
2023/08/12 02:17:05;;;;;;;0.50;0.50;;;13.60;99.90;;;;;;5074658;28;20197;-69
2023/08/12 02:19:32;;;;;;;0.65;0.65;;;13.70;99.90;;;;;;5074433;28;20196;-70
2023/08/12 02:21:58;;;;;;;0.43;0.43;;;13.70;99.90;;;;;;5074931;28;20200;-69
2023/08/12 02:24:24;;;;;;;0.50;0.50;;;13.80;99.90;;;;;;5074488;28;20197;-69
2023/08/12 02:26:50;;;;;;;0.40;0.40;;;13.80;99.90;;;;;;5074764;28;20330;-69
2023/08/12 02:29:16;;;;;;;0.40;0.40;;;13.80;99.90;;;;;;5074652;28;20214;-69
2023/08/12 02:31:41;;;;;;;0.40;0.40;;;13.90;99.90;;;;;;5074876;28;20197;-69
2023/08/12 02:34:07;;;;;;;0.30;0.30;;;13.90;99.90;;;;;;5074454;28;20209;-69
2023/08/12 02:36:33;;;;;;;0.63;0.63;;;13.90;99.90;;;;;;5074246;28;20193;-69
2023/08/12 02:38:59;;;;;;;0.40;0.40;;;13.90;99.90;;;;;;5074259;28;20694;-69
2023/08/12 02:41:25;;;;;;;0.40;0.40;;;13.90;99.90;;;;;;5074605;28;20197;-70
2023/08/12 02:43:50;;;;;;;0.70;0.70;;;14.00;99.90;;;;;;5085362;28;20554;-69
2023/08/12 02:46:18;;;;;;;0.50;0.50;;;14.00;99.90;;;;;;5094278;28;20666;-69
2023/08/12 02:48:43;;;;;;;0.40;0.40;;;14.00;99.90;;;;;;5094493;28;20188;-68
2023/08/12 02:51:10;;;;;;;0.55;0.55;;;14.00;99.90;;;;;;5093533;28;20207;-69
2023/08/12 02:53:36;;;;;;;0.40;0.40;;;14.00;99.90;;;;;;5093942;28;20587;-69
2023/08/12 02:56:01;;;;;;;0.40;0.40;;;14.00;99.90;;;;;;5094425;28;20250;-69
2023/08/12 02:58:27;;;;;;;0.70;0.70;;;14.00;99.90;;;;;;5094199;28;20204;-69
2023/08/12 03:00:54;;;;;;;0.40;0.40;;;14.00;99.90;;;;;;5088393;28;20196;-69
2023/08/12 03:03:21;;;;;;;0.40;0.40;;;14.00;99.90;;;;;;5113492;28;20211;-68
2023/08/12 03:05:48;;;;;;;0.65;0.65;;;14.00;99.90;;;;;;5114684;28;20252;-69
2023/08/12 03:08:14;;;;;;;0.40;0.40;;;14.10;99.90;;;;;;5114559;28;20670;-69
2023/08/12 03:10:41;;;;;;;0.45;0.45;;;14.10;99.90;;;;;;5114148;28;20217;-69
2023/08/12 03:13:07;;;;;;;0.43;0.43;;;14.20;99.90;;;;;;5114396;28;20183;-69
2023/08/12 03:15:33;;;;;;;0.40;0.40;;;14.30;99.90;;;;;;5096320;28;20241;-68
2023/08/12 03:17:59;;;;;;;0.47;0.47;;;14.30;99.90;;;;;;5114232;28;20195;-68
2023/08/12 03:20:24;;;;;;;0.45;0.43;;;14.40;99.90;;;;;;5113847;28;20223;-73
2023/08/12 03:22:50;;;;;;;0.40;0.40;;;14.40;99.90;;;;;;5113896;28;20226;-72
2023/08/12 03:25:16;;;;;;;0.40;0.40;;;14.50;99.90;;;;;;5114339;28;20199;-72
2023/08/12 03:27:42;;;;;;;0.47;0.47;;;14.50;99.90;;;;;;5113863;28;20207;-72
2023/08/12 03:30:09;;;;;;;0.35;0.35;;;14.60;99.90;;;;;;5113836;28;20532;-71
2023/08/12 03:32:35;;;;;;;0.50;0.50;;;14.60;99.90;;;;;;5114088;28;20197;-72
2023/08/12 03:35:01;;;;;;;0.98;0.85;;;14.60;99.90;;;;;;5113918;28;20196;-72
2023/08/12 03:37:26;;;;;;;0.40;0.40;;;14.60;99.90;;;;;;5114221;28;20410;-72
2023/08/12 03:39:52;;;;;;;0.88;0.82;;;14.70;99.90;;;;;;5113314;28;20191;-73
2023/08/12 03:42:18;;;;;;;0.40;0.40;;;14.70;99.90;;;;;;5113740;28;20204;-73
2023/08/12 03:44:44;;;;;;;0.50;0.50;;;14.70;99.90;;;;;;5113831;28;20206;-73
2023/08/12 03:47:10;;;;;;;0.50;0.50;;;14.80;99.90;;;;;;5113361;28;20286;-72
2023/08/12 03:49:37;;;;;;;0.38;0.38;;;14.80;99.90;;;;;;5113474;28;20618;-74
2023/08/12 03:52:03;;;;;;;0.55;0.55;;;14.80;99.90;;;;;;5113975;28;20274;-73
2023/08/12 03:54:29;;;;;;;0.50;0.50;;;14.80;99.90;;;;;;5113288;28;20558;-73
2023/08/12 03:56:55;;;;;;;1.10;1.00;;;14.80;99.90;;;;;;5113537;28;20265;-73
2023/08/12 03:59:20;;;;;;;12.65;1.10;;;14.90;99.90;;;;;;5113421;28;20282;-72
2023/08/12 04:01:46;;;;;;;0.70;0.70;;;14.90;99.90;;;;;;5112854;28;20616;-74
2023/08/12 04:04:12;;;;;;;0.52;0.52;;;14.90;99.90;;;;;;5112573;28;20195;-75
2023/08/12 04:06:38;;;;;;;0.50;0.50;;;14.90;99.90;;;;;;5112966;28;20215;-74
2023/08/12 04:09:05;;;;;;;0.30;0.30;;;15.00;99.90;;;;;;5113209;28;20657;-73
2023/08/12 04:11:30;;;;;;;0.30;0.30;;;15.00;99.90;;;;;;5113188;28;20195;-72
2023/08/12 04:13:56;;;;;;;1.85;0.70;;;15.00;99.90;;;;;;5113199;28;20187;-73
2023/08/12 04:16:22;;;;;;;0.40;0.40;;;15.00;99.90;;;;;;5113026;28;20188;-72
2023/08/12 04:18:48;;;;;;;0.40;0.40;;;15.00;99.90;;;;;;5113177;28;20187;-72
2023/08/12 04:21:14;;;;;;;0.47;0.47;;;15.00;99.90;;;;;;5113038;28;20592;-72
2023/08/12 04:23:40;;;;;;;0.90;0.55;;;15.10;99.90;;;;;;5112696;28;20191;-73
2023/08/12 04:26:05;;;;;;;0.63;0.57;;;15.10;99.90;;;;;;5112791;28;20198;-73
2023/08/12 04:28:31;;;;;;;0.50;0.50;;;15.10;99.90;;;;;;5112238;28;20203;-73
2023/08/12 04:30:57;;;;;;;0.47;0.47;;;15.10;99.90;;;;;;5113175;28;20215;-68
2023/08/12 04:33:23;;;;;;;0.75;0.75;;;15.10;99.90;;;;;;5094531;28;20240;-69
2023/08/12 04:35:49;;;;;;;0.57;0.57;;;15.20;99.90;;;;;;5112611;28;20721;-71
2023/08/12 04:38:15;;;;;;;0.60;0.60;;;15.20;99.90;;;;;;5113227;28;20199;-69
2023/08/12 04:40:42;;;;;;;0.38;0.38;;;15.20;99.90;;;;;;5112546;28;20209;-70
2023/08/12 04:43:09;;;;;;;0.30;0.30;;;15.20;99.90;;;;;;5112590;28;20214;-67
2023/08/12 04:45:35;;;;;;;0.68;0.50;;;15.20;99.90;;;;;;5112705;28;20722;-68
2023/08/12 04:48:00;;;;;;;0.40;0.40;;;15.20;99.90;;;;;;5112425;28;20199;-67
2023/08/12 04:50:34;;;;;;;2.17;0.90;;;15.20;99.90;;;;;;5112651;28;20211;-68
2023/08/12 04:53:00;;;;;;;0.57;0.57;;;15.20;99.90;;;;;;5113036;28;20188;-68
2023/08/12 04:55:26;;;;;;;0.52;0.50;;;15.30;99.90;;;;;;5112620;28;20328;-68
2023/08/12 04:57:53;;;;;;;3.22;1.30;;;15.30;99.90;;;;;;5112667;28;20281;-68
2023/08/12 05:00:19;;;;;;;0.73;0.73;;;15.30;99.90;;;;;;5112731;28;20187;-68
2023/08/12 05:02:45;;;;;;;0.98;0.70;;;15.30;99.90;;;;;;5112368;28;20230;-68
2023/08/12 05:05:11;;;;;;;0.40;0.40;;;15.30;99.90;;;;;;5112733;28;20762;-68
2023/08/12 05:07:36;;;;;;;0.80;0.80;;;15.30;99.90;;;;;;5112471;28;20247;-68
2023/08/12 05:10:03;;;;;;;0.50;0.50;;;15.30;99.90;;;;;;5112928;28;20191;-67
2023/08/12 05:12:28;;;;;;;0.95;0.95;;;15.30;99.90;;;;;;5112254;28;20642;-68
2023/08/12 05:14:54;;;;;;;0.50;0.50;;;15.40;99.90;;;;;;5114898;28;20277;-68
2023/08/12 05:17:20;;;;;;;0.40;0.40;;;15.40;99.90;;;;;;5116543;28;20268;-68
2023/08/12 05:19:46;;;;;;;0.70;0.70;;;15.40;99.90;;;;;;5116788;28;20642;-68
2023/08/12 05:22:11;;;;;;;0.77;0.70;;;15.40;99.90;;;;;;5098788;28;20200;-68
2023/08/12 05:24:37;;;;;;;0.93;0.80;;;15.40;99.90;;;;;;5095887;28;20235;-68
2023/08/12 05:27:04;;;;;;;0.52;0.52;;;15.40;99.90;;;;;;5096462;28;20208;-68
2023/08/12 05:29:30;;;;;;;0.40;0.40;;;15.50;99.90;;;;;;5095830;28;20642;-68
2023/08/12 05:31:56;;;;;;;0.40;0.40;;;15.50;99.90;;;;;;5101811;27;20248;-67
2023/08/12 05:34:22;;;;;;;0.73;0.73;;;15.60;99.90;;;;;;5115785;28;20188;-67
2023/08/12 05:36:48;;;;;;;0.40;0.40;;;15.60;99.90;;;;;;5116310;28;20718;-68
2023/08/12 05:39:15;;;;;;;2.65;0.65;;;15.60;99.90;;;;;;5116394;28;20195;-68
2023/08/12 05:41:41;;;;;;;0.70;0.63;;;15.60;99.90;;;;;;5116314;28;20187;-73
2023/08/12 05:44:06;;;;;;;0.65;0.65;;;15.60;99.90;;;;;;5115843;28;20195;-73
2023/08/12 05:46:33;;;;;;;0.63;0.63;;;15.60;99.90;;;;;;5115894;28;20191;-73
2023/08/12 05:48:59;;;;;;;0.40;0.40;;;15.60;99.90;;;;;;5115828;28;20270;-73
2023/08/12 05:51:25;;;;;;;0.43;0.43;;;15.70;99.90;;;;;;5116073;28;20718;-73
2023/08/12 05:53:51;;;;;;;0.60;0.60;;;15.70;99.90;;;;;;5115812;28;20179;-73
2023/08/12 05:56:17;;;;;;;12.77;0.70;;;15.60;99.90;;;;;;5116263;28;20529;-73
2023/08/12 05:58:42;;;;;;;0.60;0.60;;;15.70;99.90;;;;;;5115568;28;20192;-73
2023/08/12 06:01:08;;;;;;;0.57;0.57;;;15.70;99.90;;;;;;5115476;28;20258;-72
2023/08/12 06:03:34;;;;;;;0.68;0.57;;;15.70;99.90;;;;;;5115762;28;20184;-73
2023/08/12 06:05:59;;;;;;;0.35;0.35;;;15.70;99.90;;;;;;5115445;28;20217;-73
2023/08/12 06:08:25;;;;;;;0.50;0.50;;;15.70;99.90;;;;;;5115439;28;20203;-73
2023/08/12 06:10:51;;;;;;;0.47;0.47;;;15.70;99.90;;;;;;5116077;28;20226;-73
2023/08/12 06:13:17;;;;;;;0.40;0.40;;;15.70;99.90;;;;;;5115663;28;20282;-73
2023/08/12 06:15:42;;;;;;;6.47;0.68;;;15.70;99.90;;;;;;5115635;28;20187;-73
2023/08/12 06:18:08;;;;;;;0.50;0.50;;;15.80;99.90;;;;;;5115314;28;20199;-73
2023/08/12 06:20:34;;;;;;;1.00;0.93;;;15.80;99.90;;;;;;5114965;28;20187;-72
2023/08/12 06:22:59;;;;;;;0.50;0.50;;;15.80;99.90;;;;;;5115633;28;20194;-72
2023/08/12 06:25:25;;;;;;;0.50;0.50;;;15.80;99.90;;;;;;5114189;28;20196;-72
2023/08/12 06:27:51;;;;;;;0.80;0.80;;;15.80;99.90;;;;;;5114642;28;20214;-72
2023/08/12 06:30:17;;;;;;;0.47;0.47;;;15.90;99.90;;;;;;5115706;28;20194;-73
2023/08/12 06:32:42;;;;;;;0.40;0.40;;;15.90;99.90;;;;;;5096618;28;20561;-73
2023/08/12 06:35:08;;;;;;;0.52;0.52;;;15.90;99.90;;;;;;5115006;28;20754;-73
2023/08/12 06:37:34;;;;;;;0.50;0.50;;;15.90;99.90;;;;;;5096816;28;20282;-73
2023/08/12 06:39:59;;;;;;;0.30;0.30;;;15.90;99.90;;;;;;5114794;28;20543;-73
2023/08/12 06:42:25;;;;;;;0.75;0.75;;;15.90;99.90;;;;;;5114925;28;20230;-72
2023/08/12 06:44:55;;;;;;;1.08;0.95;;;15.90;99.90;;;;;;5114851;28;20198;-73
2023/08/12 06:47:21;;;;;;;0.80;0.80;;;15.90;99.90;;;;;;5115037;28;20211;-72
2023/08/12 06:49:47;;;;;;;0.80;0.80;;;16.00;99.90;;;;;;5115304;28;20192;-73
2023/08/12 06:52:13;;;;;;;0.73;0.63;;;16.00;99.90;;;;;;5114114;28;20650;-69
2023/08/12 06:54:39;;;;;;;0.43;0.43;;;16.00;99.90;;;;;;5114491;28;20278;-68
2023/08/12 06:57:05;;;;;;;1.48;1.00;;;16.10;99.90;;;;;;5114688;28;20198;-68
2023/08/12 06:59:31;;;;;;;0.50;0.50;;;16.10;99.90;;;;;;5114416;28;20202;-68
2023/08/12 07:01:57;;;;;;;0.60;0.60;;;16.10;99.90;;;;;;5114092;28;20227;-68
2023/08/12 07:04:22;;;;;;;2.33;1.13;;;16.20;99.90;;;;;;5114450;28;20547;-68
2023/08/12 07:06:48;;;;;;;1.15;0.75;;;16.20;99.90;;;;;;5114672;28;20253;-69
2023/08/12 07:09:14;;;;;;;0.63;0.60;;;16.20;99.90;;;;;;5114164;28;20192;-69
2023/08/12 07:11:40;;;;;;;0.93;0.70;;;16.20;99.90;;;;;;5114171;28;20196;-68
2023/08/12 07:14:06;;;;;;;0.43;0.43;;;16.20;99.90;;;;;;5114204;28;20237;-69
2023/08/12 07:16:32;;;;;;;1.98;1.10;;;16.20;99.90;;;;;;5114051;28;20235;-68
2023/08/12 07:18:57;;;;;;;0.73;0.73;;;16.20;99.90;;;;;;5114061;28;20657;-68
2023/08/12 07:21:23;;;;;;;9.95;1.45;;;16.30;99.90;;;;;;5114021;28;20187;-68
2023/08/12 07:23:49;;;;;;;1.35;1.23;;;16.30;99.90;;;;;;5113547;28;20215;-68
2023/08/12 07:26:14;;;;;;;1.13;1.02;;;16.40;99.90;;;;;;5114171;28;20184;-68
2023/08/12 07:28:41;;;;;;;1.73;0.85;;;16.40;99.90;;;;;;5113705;28;20697;-68
2023/08/12 07:31:07;;;;;;;0.50;0.50;;;16.40;99.90;;;;;;5113949;28;20681;-68
2023/08/12 07:33:32;;;;;;;1.05;0.60;;;16.40;99.90;;;;;;5113750;28;20192;-68
2023/08/12 07:35:58;;;;;;;1.10;1.10;;;16.40;99.90;;;;;;5113929;28;20192;-68
2023/08/12 07:38:24;;;;;;;1.52;0.82;;;16.40;99.90;;;;;;5113047;28;20199;-68
2023/08/12 07:40:50;;;;;;;0.40;0.40;;;16.50;99.90;;;;;;5114108;28;20202;-68
2023/08/12 07:43:16;;;;;;;0.95;0.95;;;16.50;99.90;;;;;;5108334;28;20618;-67
2023/08/12 07:45:42;;;;;;;0.50;0.50;;;16.60;99.90;;;;;;5093207;28;20191;-68
2023/08/12 07:48:08;;;;;;;1.33;1.02;;;16.70;99.90;;;;;;5093088;28;20243;-68
2023/08/12 07:50:34;;;;;;;16.17;1.33;;;16.80;99.90;;;;;;5093023;28;20234;-68
2023/08/12 07:53:00;;;;;;;0.70;0.70;;;16.90;99.90;;;;;;5093249;28;20646;-68
2023/08/12 07:55:25;;;;;;;0.50;0.50;;;17.00;99.90;;;;;;5093059;28;20279;-68
2023/08/12 07:57:51;;;;;;;3.90;1.35;;;17.10;99.90;;;;;;5095022;28;20196;-68
2023/08/12 08:00:18;;;;;;;3.90;1.55;;;17.20;99.90;;;;;;5104372;28;20192;-66
2023/08/12 08:02:43;;;;;;;0.45;0.45;;;17.30;99.90;;;;;;5071163;28;20295;-69
2023/08/12 08:05:09;;;;;;;0.68;0.68;;;17.30;99.90;;;;;;5072800;28;20306;-69
2023/08/12 08:07:35;;;;;;;0.75;0.75;;;17.30;99.90;;;;;;5072701;28;20250;-69
2023/08/12 08:10:01;;;;;;;0.52;0.52;;;17.30;99.90;;;;;;5072469;28;20276;-68
2023/08/12 08:12:26;;;;;;;1.17;0.75;;;17.20;99.90;;;;;;5072311;28;20191;-68
2023/08/12 08:14:52;;;;;;;0.50;0.50;;;17.10;99.90;;;;;;5072724;28;20211;-68
2023/08/12 08:17:18;;;;;;;2.45;1.02;;;17.10;99.90;;;;;;5072378;28;20197;-68
2023/08/12 08:19:43;;;;;;;0.80;0.80;;;17.10;99.90;;;;;;5072400;28;20193;-70
2023/08/12 08:22:09;;;;;;;0.38;0.38;;;17.10;99.90;;;;;;5071831;28;20713;-68
2023/08/12 08:24:35;;;;;;;0.73;0.73;;;17.00;99.90;;;;;;5071480;28;20199;-68
2023/08/12 08:27:00;;;;;;;0.47;0.47;;;17.00;99.90;;;;;;5072597;28;20205;-68
2023/08/12 08:29:26;;;;;;;0.93;0.82;;;17.00;99.90;;;;;;5072377;28;20221;-68
2023/08/12 08:31:52;;;;;;;0.90;0.90;;;17.00;99.90;;;;;;5072515;28;20185;-68
2023/08/12 08:34:18;;;;;;;0.95;0.80;;;17.10;99.90;;;;;;5071096;28;20200;-69
2023/08/12 08:36:43;;;;;;;0.82;0.82;;;17.20;99.90;;;;;;5072457;28;20197;-68
2023/08/12 08:39:09;;;;;;;0.70;0.70;;;17.40;99.90;;;;;;5072360;28;20204;-68
2023/08/12 08:41:39;;;;;;;0.93;0.93;;;17.50;99.90;;;;;;5072178;28;20651;-68
2023/08/12 08:44:08;;;;;;;1.33;0.88;;;17.60;99.90;;;;;;5072415;28;20189;-68
2023/08/12 08:46:34;;;;;;;0.63;0.63;;;17.70;99.90;;;;;;5072058;28;20671;-68
2023/08/12 08:49:03;;;;;;;1.05;0.70;;;17.60;99.90;;;;;;5072848;28;20193;-69
2023/08/12 08:51:32;;;;;;;0.70;0.70;;;17.70;99.90;;;;;;5076672;28;20250;-69
2023/08/12 08:53:58;;;;;;;0.65;0.63;;;17.80;99.90;;;;;;5076520;28;20223;-69
2023/08/12 08:56:24;;;;;;;2.60;1.63;;;17.90;99.90;;;;;;5076136;28;20238;-69
2023/08/12 08:58:50;;;;;;;0.85;0.73;;;18.20;99.90;;;;;;5075997;28;20283;-68
2023/08/12 09:01:19;;;;;;;3.80;1.15;;;18.20;99.90;;;;;;5083224;28;20343;-69
2023/08/12 09:03:46;;;;;;;0.73;0.70;;;18.20;99.90;;;;;;5117206;28;20198;-69
2023/08/12 09:06:12;;;;;;;0.70;0.70;;;18.20;99.90;;;;;;5116715;28;20191;-68
2023/08/12 09:08:44;;;;;;;0.80;0.80;;;18.20;99.90;;;;;;5116528;28;20221;-68
2023/08/12 09:11:13;;;;;;;0.95;0.88;;;18.30;99.90;;;;;;5117069;28;20191;-69
2023/08/12 09:13:39;;;;;;;1.00;0.90;;;18.60;99.90;;;;;;5108398;28;20204;-68
2023/08/12 09:16:04;;;;;;;1.08;0.85;;;18.70;99.90;;;;;;5096609;28;20192;-68
2023/08/12 09:18:31;;;;;;;0.57;0.57;;;18.70;99.90;;;;;;5115074;28;20236;-69
2023/08/12 09:20:57;;;;;;;0.60;0.60;;;18.80;99.90;;;;;;5116361;28;20206;-68
2023/08/12 09:23:23;;;;;;;0.68;0.68;;;18.80;99.90;;;;;;5116561;28;20661;-68
2023/08/12 09:25:49;;;;;;;0.70;0.68;;;18.80;99.90;;;;;;5110798;28;20219;-69
2023/08/12 09:28:15;;;;;;;0.45;0.45;;;18.80;99.90;;;;;;5096029;28;20223;-68
2023/08/12 09:30:41;;;;;;;0.60;0.60;;;18.70;99.90;;;;;;5096077;28;20275;-68
2023/08/12 09:33:08;;;;;;;1.33;0.70;;;18.70;99.90;;;;;;5096046;28;20647;-68
2023/08/12 09:35:35;;;;;;;0.85;0.85;;;18.50;99.90;;;;;;5096048;28;20557;-68
2023/08/12 09:38:05;;;;;;;0.77;0.77;;;18.50;99.90;;;;;;5095819;28;20184;-68
2023/08/12 09:40:33;;;;;;;0.75;0.73;;;18.50;99.90;;;;;;5095977;28;20220;-68
2023/08/12 09:42:59;;;;;;;0.65;0.65;;;18.40;99.90;;;;;;5095902;28;20188;-68
2023/08/12 09:45:25;;;;;;;0.73;0.68;;;18.40;99.90;;;;;;5095745;28;20693;-67
2023/08/12 09:47:52;;;;;;;0.65;0.65;;;18.50;99.90;;;;;;5095615;28;20619;-68
2023/08/12 09:50:20;;;;;;;2.42;1.23;;;18.80;99.90;;;;;;5096221;28;20184;-68
2023/08/12 09:52:46;;;;;;;0.40;0.40;;;19.10;99.90;;;;;;5095646;28;20662;-68
2023/08/12 09:55:16;;;;;;;0.70;0.70;;;19.60;99.90;;;;;;5088436;28;20191;-72
2023/08/12 09:57:46;;;;;;;1.00;0.75;;;20.30;99.90;;;;;;5116349;28;20344;-71
2023/08/12 10:00:16;;;;;;;0.65;0.65;;;20.60;99.90;;;;;;5115800;28;20251;-71
2023/08/12 10:02:43;;;;;;;0.70;0.70;;;20.40;99.90;;;;;;5115391;28;20223;-70
2023/08/12 10:05:12;;;;;;;0.80;0.80;;;20.40;99.90;;;;;;5115592;28;20657;-70
2023/08/12 10:08:13;;;;;;;1.23;0.95;;;20.70;99.90;;;;;;5117040;28;20285;-71
2023/08/12 10:10:40;;;;;;;1.15;0.90;;;20.90;99.90;;;;;;5115340;28;20193;-71
2023/08/12 10:13:07;;;;;;;0.63;0.63;;;20.80;99.90;;;;;;5115080;28;20199;-72
2023/08/12 10:15:34;;;;;;;0.73;0.73;;;20.80;99.90;;;;;;5115410;28;20232;-71
2023/08/12 10:18:00;;;;;;;0.68;0.68;;;20.90;99.90;;;;;;5115131;28;20215;-72
2023/08/12 10:20:27;;;;;;;0.90;0.90;;;21.10;99.90;;;;;;5115040;28;20234;-72
2023/08/12 10:22:54;;;;;;;0.80;0.70;;;21.30;99.90;;;;;;5115580;28;20197;-74
2023/08/12 10:25:23;;;;;;;1.20;1.05;;;21.40;99.90;;;;;;5115181;27;20733;-73
2023/08/12 10:28:07;;;;;;;1.00;0.55;;;21.50;99.90;;;;;;5116259;28;20225;-73
2023/08/12 10:30:34;;;;;;;1.02;0.60;;;21.60;99.90;;;;;;5113841;28;20191;-72
2023/08/12 10:33:00;;;;;;;0.47;0.47;;;21.40;99.90;;;;;;5115203;27;20175;-72
2023/08/12 10:35:45;;;;;;;2.03;0.75;;;21.50;99.90;;;;;;5114220;28;20187;-71
2023/08/12 10:38:18;;;;;;;1.10;0.60;;;21.80;99.90;;;;;;5115094;28;20199;-71
2023/08/12 10:40:44;;;;;;;0.65;0.65;;;21.90;99.90;;;;;;5096879;28;20264;-72
2023/08/12 10:43:11;;;;;;;0.40;0.40;;;22.00;99.90;;;;;;5114833;28;20563;-72
2023/08/12 10:45:48;;;;;;;0.60;0.60;;;22.60;99.90;;;;;;5114538;28;20542;-71
2023/08/12 10:48:24;;;;;;;2.17;0.70;;;22.60;99.90;;;;;;5114963;28;20207;-72
2023/08/12 10:50:55;;;;;;;1.30;0.77;;;22.20;99.90;;;;;;5114713;28;20610;-71
2023/08/12 10:53:31;;;;;;;0.63;0.63;;;22.50;99.90;;;;;;5114565;28;20248;-72
2023/08/12 10:55:59;;;;;;;0.52;0.52;;;22.70;99.90;;;;;;5114928;28;20198;-72
2023/08/12 10:58:28;;;;;;;0.73;0.50;;;22.30;99.90;;;;;;5114636;28;20275;-72
2023/08/12 11:00:55;;;;;;;0.40;0.40;;;22.10;99.90;;;;;;5114310;28;20265;-71
2023/08/12 11:03:21;;;;;;;0.55;0.55;;;22.50;99.90;;;;;;5114176;28;20267;-71
2023/08/12 11:05:47;;;;;;;1.48;0.88;;;22.50;99.90;;;;;;5114797;28;20191;-70
2023/08/12 11:08:13;;;;;;;1.33;0.80;;;22.30;99.90;;;;;;5114486;28;20203;-70
2023/08/12 11:10:40;;;;;;;0.98;0.73;;;22.50;99.90;;;;;;5114016;28;20199;-70
2023/08/12 11:13:06;;;;;;;0.28;0.28;;;22.70;99.90;;;;;;5113750;28;20560;-70
2023/08/12 11:15:42;;;;;;;0.35;0.35;;;23.20;99.90;;;;;;5114411;28;20188;-71
2023/08/12 11:18:14;;;;;;;3.50;0.70;;;22.80;99.90;;;;;;5096001;28;20205;-70
2023/08/12 11:20:40;;;;;;;1.55;0.77;;;22.90;99.90;;;;;;5114253;28;20196;-70
2023/08/12 11:23:08;;;;;;;4.85;1.00;;;23.00;99.90;;;;;;5114062;28;20261;-70
2023/08/12 11:25:35;;;;;;;0.98;0.90;;;23.80;99.90;;;;;;5114214;28;20191;-70
2023/08/12 11:28:01;;;;;;;0.63;0.63;;;24.40;99.90;;;;;;5114278;28;20294;-70
2023/08/12 11:30:34;;;;;;;0.65;0.63;;;25.10;99.90;;;;;;5114322;28;20187;-70
2023/08/12 11:33:02;;;;;;;0.82;0.82;;;24.90;99.90;;;;;;5112937;28;20231;-73
2023/08/12 11:35:28;;;;;;;0.38;0.38;;;24.90;99.90;;;;;;5114017;28;20270;-73
2023/08/12 11:37:58;;;;;;;0.38;0.38;;;24.70;99.90;;;;;;5113932;28;20200;-71
2023/08/12 11:40:26;;;;;;;0.60;0.60;;;24.10;99.90;;;;;;5113729;28;20195;-71
2023/08/12 11:42:53;;;;;;;0.40;0.40;;;24.00;99.90;;;;;;5113983;28;20195;-72
2023/08/12 11:45:21;;;;;;;0.40;0.40;;;23.40;99.90;;;;;;5113722;28;20737;-71
2023/08/12 11:47:52;;;;;;;0.80;0.80;;;23.40;99.90;;;;;;5113455;28;20212;-72
2023/08/12 11:50:21;;;;;;;0.80;0.63;;;23.90;99.90;;;;;;5095525;28;20236;-72
2023/08/12 11:52:48;;;;;;;0.38;0.38;;;24.30;99.90;;;;;;5113737;28;20207;-72
2023/08/12 11:55:14;;;;;;;0.40;0.40;;;24.60;99.90;;;;;;5113909;28;20193;-71
2023/08/12 11:57:41;;;;;;;0.55;0.52;;;24.60;99.90;;;;;;5113518;28;20202;-71
2023/08/12 12:00:13;;;;;;;0.95;0.65;;;24.60;99.90;;;;;;5113429;28;20198;-73
2023/08/12 12:02:53;;;;;;;0.60;0.60;;;24.70;99.90;;;;;;5094748;28;20608;-71
2023/08/12 12:05:27;;;;;;;0.40;0.40;;;24.70;99.90;;;;;;5113010;28;20202;-71
2023/08/12 12:07:53;;;;;;;14.88;1.65;;;25.20;99.90;;;;;;5113346;28;20205;-72
2023/08/12 12:10:21;;;;;;;0.85;0.63;;;25.30;99.90;;;;;;5113514;28;20244;-71
2023/08/12 12:12:48;;;;;;;0.30;0.30;;;25.10;99.90;;;;;;5113233;28;20993;-70
2023/08/12 12:15:17;;;;;;;0.70;0.50;;;25.20;99.90;;;;;;5113414;28;20653;-70
2023/08/12 12:17:45;;;;;;;0.25;0.25;;;25.30;99.90;;;;;;5113177;28;20270;-71
2023/08/12 12:20:11;;;;;;;2.17;0.75;;;25.10;99.90;;;;;;5094648;28;20290;-72
2023/08/12 12:22:38;;;;;;;0.75;0.63;;;24.60;99.90;;;;;;5111567;28;20332;-72
2023/08/12 12:25:08;;;;;;;2.28;0.77;;;24.60;99.90;;;;;;5112059;28;20645;-76
2023/08/12 12:27:36;;;;;;;0.32;0.32;;;25.00;99.90;;;;;;5112912;28;20200;-77
2023/08/12 12:30:02;;;;;;;0.50;0.50;;;25.10;99.90;;;;;;5112783;28;20666;-75
2023/08/12 12:32:29;;;;;;;0.80;0.55;;;24.90;99.90;;;;;;5112703;28;20183;-77
2023/08/12 12:35:23;;;;;;;0.30;0.30;;;25.10;99.90;;;;;;5114936;28;20229;-77
2023/08/12 12:38:20;;;;;;;0.30;0.30;;;25.60;99.90;;;;;;5099023;28;20719;-76
2023/08/12 12:40:46;;;;;;;0.85;0.50;;;25.10;99.90;;;;;;5087294;28;20685;-70
2023/08/12 12:43:12;;;;;;;0.47;0.47;;;24.70;99.90;;;;;;5112420;28;20215;-70
2023/08/12 12:45:38;;;;;;;0.73;0.43;;;24.60;99.90;;;;;;5112839;28;20191;-71